Time;durP1;ratioP1;P1;durP2;ratioP2;P2;SDS_P1;SDS_P2;PMS_P1;PMS_P2;Temp;Humidity;BMP_temperature;BMP_pressure;BME280_temperature;BME280_humidity;BME280_pressure;Samples;Min_cycle;Max_cycle;Signal;HPM_P1;HPM_P2
2021/12/16 00:09:38;;;;;;;18.65;7.82;;;9.40;99.90;;;;;;6703185;88;20202;-76
2021/12/16 00:39:52;;;;;;;15.07;8.07;;;9.30;99.90;;;;;;6695269;88;20304;-75
2021/12/16 00:50:03;;;;;;;12.77;7.12;;;9.20;99.90;;;;;;6692690;88;20268;-75
2021/12/16 01:00:06;;;;;;;16.30;7.50;;;9.10;99.90;;;;;;6695964;88;20183;-75
2021/12/16 01:33:31;;;;;;;13.70;7.47;;;9.10;99.90;;;;;;6701525;88;20194;-75
2021/12/16 01:51:35;;;;;;;13.80;8.38;;;9.10;99.90;;;;;;6695696;88;20311;-76
2021/12/16 02:01:38;;;;;;;14.70;7.37;;;9.00;99.90;;;;;;6687238;88;20611;-76
2021/12/16 02:32:16;;;;;;;13.95;7.75;;;8.90;99.90;;;;;;6691194;88;20191;-75
2021/12/16 02:42:22;;;;;;;16.50;7.50;;;8.80;99.90;;;;;;6702649;88;20207;-76
2021/12/16 02:52:26;;;;;;;14.50;7.70;;;9.20;99.90;;;;;;6698259;88;20648;-76
2021/12/16 03:02:27;;;;;;;13.82;7.00;;;8.90;99.90;;;;;;6694458;88;20210;-76
2021/12/16 03:23:09;;;;;;;11.35;6.70;;;8.80;99.90;;;;;;6696807;88;20219;-76
2021/12/16 03:33:28;;;;;;;11.82;6.32;;;8.70;99.90;;;;;;6684244;88;20206;-76
2021/12/16 03:43:30;;;;;;;12.57;6.28;;;8.90;99.90;;;;;;6694551;88;20179;-76
2021/12/16 03:53:31;;;;;;;11.77;6.28;;;8.90;99.90;;;;;;6695781;88;20216;-75
2021/12/16 04:03:32;;;;;;;11.80;6.28;;;8.90;99.90;;;;;;6689754;88;20222;-75
2021/12/16 04:13:41;;;;;;;11.77;6.78;;;9.00;99.90;;;;;;6697595;88;20244;-75
2021/12/16 04:23:42;;;;;;;12.52;7.28;;;9.00;99.90;;;;;;6697172;88;20178;-75
2021/12/16 04:33:44;;;;;;;15.90;8.05;;;9.10;99.90;;;;;;6697571;88;20217;-77
2021/12/16 04:43:47;;;;;;;15.45;8.75;;;8.80;99.90;;;;;;6696918;88;20191;-77
2021/12/16 04:53:48;;;;;;;16.87;8.25;;;9.00;99.90;;;;;;6695654;88;20159;-76
2021/12/16 05:03:51;;;;;;;21.27;9.87;;;9.10;99.90;;;;;;6681973;88;20250;-76
2021/12/16 05:13:52;;;;;;;18.80;8.85;;;9.10;99.90;;;;;;6697042;88;20526;-76
2021/12/16 05:44:28;;;;;;;14.05;6.50;;;8.70;99.90;;;;;;6728133;88;20216;-77
2021/12/16 05:54:28;;;;;;;11.88;6.53;;;8.60;99.90;;;;;;6725477;88;20233;-76
2021/12/16 06:04:29;;;;;;;15.75;7.25;;;8.60;99.90;;;;;;6719034;88;20186;-77
2021/12/16 06:34:55;;;;;;;12.00;6.90;;;8.60;99.90;;;;;;6724986;88;20256;-77
2021/12/16 06:45:03;;;;;;;15.10;7.32;;;8.50;99.90;;;;;;6718043;88;20194;-77
2021/12/16 06:55:16;;;;;;;16.17;7.97;;;8.50;99.90;;;;;;6723793;88;20213;-77
2021/12/16 07:05:19;;;;;;;12.07;7.47;;;8.50;99.90;;;;;;6723682;88;20181;-77
2021/12/16 07:15:24;;;;;;;13.00;7.55;;;8.60;99.90;;;;;;6735617;88;20182;-78
2021/12/16 07:25:25;;;;;;;16.65;9.23;;;8.60;99.90;;;;;;6729585;88;20245;-79
2021/12/16 07:35:27;;;;;;;22.00;10.32;;;8.50;99.90;;;;;;6736835;88;20358;-78
2021/12/16 07:45:30;;;;;;;19.48;10.13;;;8.30;99.90;;;;;;6722336;88;20318;-77
2021/12/16 07:55:33;;;;;;;26.55;12.10;;;8.50;99.90;;;;;;6715387;88;20202;-77
2021/12/16 08:05:37;;;;;;;28.60;13.30;;;8.30;99.90;;;;;;6712144;88;20190;-77
2021/12/16 08:15:38;;;;;;;24.25;12.10;;;8.30;99.90;;;;;;6713256;88;20225;-78
2021/12/16 08:25:39;;;;;;;32.90;13.13;;;8.30;99.90;;;;;;6715745;88;21091;-77
2021/12/16 08:35:43;;;;;;;31.77;13.62;;;8.20;99.90;;;;;;6708506;88;20285;-78
2021/12/16 08:45:45;;;;;;;23.38;12.18;;;8.40;99.90;;;;;;6719494;88;20270;-78
2021/12/16 08:55:47;;;;;;;22.20;11.73;;;8.60;99.90;;;;;;6719821;88;20193;-77
2021/12/16 09:05:48;;;;;;;18.95;9.55;;;8.60;99.90;;;;;;6711115;88;20243;-77
2021/12/16 09:15:56;;;;;;;20.73;9.83;;;9.00;99.90;;;;;;6711501;88;20185;-77
2021/12/16 09:25:57;;;;;;;25.00;11.77;;;9.50;99.90;;;;;;6712506;88;20620;-77
2021/12/16 09:35:59;;;;;;;26.98;11.77;;;9.50;99.90;;;;;;6714629;88;20261;-76
2021/12/16 09:46:03;;;;;;;27.62;12.07;;;9.60;99.90;;;;;;6717893;88;20202;-77
2021/12/16 09:56:09;;;;;;;24.23;10.27;;;9.70;99.90;;;;;;6715814;88;20843;-77
2021/12/16 10:06:10;;;;;;;20.33;8.87;;;10.00;99.90;;;;;;6715578;88;20752;-76
2021/12/16 10:26:18;;;;;;;31.35;14.15;;;10.30;99.90;;;;;;6723358;88;20193;-76
2021/12/16 10:36:21;;;;;;;40.92;16.35;;;10.20;99.90;;;;;;6720903;88;21192;-77
2021/12/16 10:46:27;;;;;;;39.90;16.85;;;10.10;99.90;;;;;;6709246;88;20182;-77
2021/12/16 10:56:34;;;;;;;43.42;18.17;;;10.20;99.90;;;;;;6717914;88;20264;-77
2021/12/16 11:06:40;;;;;;;47.28;20.92;;;10.70;99.90;;;;;;6720487;88;20356;-77
2021/12/16 11:16:41;;;;;;;54.80;22.20;;;10.90;99.90;;;;;;6722923;88;20347;-76
2021/12/16 11:26:43;;;;;;;53.42;22.55;;;10.90;99.90;;;;;;6722000;88;20177;-77
2021/12/16 11:36:46;;;;;;;44.25;20.42;;;11.30;99.90;;;;;;6740252;77;21590;-77
2021/12/16 11:46:53;;;;;;;50.45;22.48;;;11.50;99.90;;;;;;6714406;88;20185;-76
2021/12/16 11:57:28;;;;;;;51.88;23.20;;;11.40;99.90;;;;;;6714707;88;20232;-77
2021/12/16 12:07:40;;;;;;;51.37;22.23;;;11.30;99.90;;;;;;6700720;88;20205;-74
2021/12/16 12:17:52;;;;;;;49.65;21.75;;;11.50;99.90;;;;;;6694262;88;20202;-76
2021/12/16 12:27:53;;;;;;;50.72;22.98;;;11.60;99.90;;;;;;6704740;88;20174;-76
2021/12/16 12:37:57;;;;;;;55.12;22.55;;;11.30;99.90;;;;;;6714476;88;20324;-76
2021/12/16 12:48:00;;;;;;;47.00;21.58;;;11.70;99.90;;;;;;6710897;88;20202;-73
2021/12/16 12:58:05;;;;;;;52.22;23.00;;;11.80;99.90;;;;;;6713904;88;20743;-76
2021/12/16 13:08:11;;;;;;;46.47;21.90;;;11.70;99.90;;;;;;6712983;88;20210;-75
2021/12/16 13:28:44;;;;;;;48.00;22.27;;;11.60;99.90;;;;;;6702504;88;20186;-75
2021/12/16 13:38:48;;;;;;;46.63;22.05;;;11.70;99.90;;;;;;6713010;88;20370;-76
2021/12/16 14:10:06;;;;;;;48.35;23.45;;;11.20;99.90;;;;;;6695663;88;20178;-75
2021/12/16 14:51:34;;;;;;;49.67;23.12;;;11.00;99.90;;;;;;6711792;88;20283;-76
2021/12/16 15:01:45;;;;;;;51.80;23.40;;;11.10;99.90;;;;;;6711660;88;20299;-76
2021/12/16 15:12:18;;;;;;;53.58;24.02;;;10.90;99.90;;;;;;6710466;88;20263;-76
2021/12/16 15:43:03;;;;;;;56.80;24.52;;;11.00;99.90;;;;;;6716044;88;20275;-76
2021/12/16 15:53:07;;;;;;;54.40;23.52;;;10.70;99.90;;;;;;6714719;88;20249;-76
2021/12/16 16:03:10;;;;;;;50.80;23.73;;;10.40;99.90;;;;;;6705727;88;20346;-76
2021/12/16 16:13:22;;;;;;;49.95;23.10;;;10.50;99.90;;;;;;6716002;88;20218;-75
2021/12/16 16:23:24;;;;;;;55.08;23.33;;;10.40;99.90;;;;;;6715798;88;20185;-76
2021/12/16 16:33:26;;;;;;;50.15;21.77;;;10.20;99.90;;;;;;6709424;88;20293;-76
2021/12/16 16:43:34;;;;;;;51.53;22.45;;;10.20;99.90;;;;;;6718113;88;20246;-77
2021/12/16 16:53:49;;;;;;;50.30;21.65;;;10.20;99.90;;;;;;6718596;88;20242;-77
2021/12/16 17:03:50;;;;;;;47.15;20.65;;;10.20;99.90;;;;;;6705664;88;20829;-77
2021/12/16 17:14:08;;;;;;;44.92;20.15;;;10.40;99.90;;;;;;6712721;88;20301;-77
2021/12/16 17:24:13;;;;;;;51.17;21.55;;;10.30;99.90;;;;;;6714270;88;20734;-76
2021/12/16 17:34:15;;;;;;;52.53;21.85;;;10.30;99.90;;;;;;6711109;88;20606;-77
2021/12/16 17:44:16;;;;;;;51.37;22.90;;;10.50;99.90;;;;;;6722146;88;20331;-79
2021/12/16 17:54:17;;;;;;;57.47;24.27;;;10.50;99.90;;;;;;6725779;88;20223;-78
2021/12/16 18:04:21;;;;;;;54.13;23.42;;;10.50;99.90;;;;;;6719494;88;20262;-77
2021/12/16 18:14:30;;;;;;;60.10;25.20;;;10.50;99.90;;;;;;6712608;88;20265;-76
2021/12/16 18:25:02;;;;;;;58.72;24.33;;;10.30;99.90;;;;;;6717703;88;20337;-76
2021/12/16 18:35:07;;;;;;;56.37;24.70;;;10.30;99.90;;;;;;6708591;88;20186;-76
2021/12/16 18:45:12;;;;;;;73.47;27.02;;;10.20;99.90;;;;;;6712738;88;20270;-76
2021/12/16 18:55:14;;;;;;;68.28;26.62;;;10.10;99.90;;;;;;6715000;88;20188;-76
2021/12/16 19:05:15;;;;;;;66.07;26.73;;;10.30;99.90;;;;;;6716005;88;20300;-77
2021/12/16 19:15:22;;;;;;;68.35;26.10;;;10.20;99.90;;;;;;6717643;88;20399;-77
2021/12/16 19:25:24;;;;;;;73.22;26.48;;;10.30;99.90;;;;;;6720305;88;20194;-77
2021/12/16 19:35:25;;;;;;;71.28;27.58;;;10.10;99.90;;;;;;6718375;88;20190;-77
2021/12/16 19:45:29;;;;;;;66.03;27.60;;;10.20;99.90;;;;;;6720310;88;20210;-76
2021/12/16 19:55:30;;;;;;;67.87;27.27;;;10.10;99.90;;;;;;6722872;88;20733;-77
2021/12/16 20:05:31;;;;;;;68.47;27.40;;;10.00;99.90;;;;;;6715695;88;20185;-77
2021/12/16 20:15:34;;;;;;;64.28;24.65;;;10.10;99.90;;;;;;6718286;88;20219;-77
2021/12/16 20:25:41;;;;;;;61.05;25.02;;;9.90;99.90;;;;;;6715080;88;20218;-77
2021/12/16 20:35:50;;;;;;;60.83;25.83;;;9.90;99.90;;;;;;6718378;88;20189;-77
2021/12/16 20:45:58;;;;;;;64.43;24.48;;;9.90;99.90;;;;;;6712319;88;20296;-77
2021/12/16 20:55:59;;;;;;;58.58;24.73;;;10.10;99.90;;;;;;6713173;88;20643;-77
2021/12/16 21:06:03;;;;;;;66.12;25.92;;;10.10;99.90;;;;;;6714249;88;20312;-76
2021/12/16 21:16:05;;;;;;;68.47;25.55;;;10.10;99.90;;;;;;6713874;88;20238;-76
2021/12/16 21:26:07;;;;;;;64.68;26.77;;;9.80;99.90;;;;;;6712185;88;20670;-76
2021/12/16 21:36:13;;;;;;;68.72;27.45;;;10.00;99.90;;;;;;6711448;88;20190;-76
2021/12/16 21:46:14;;;;;;;66.32;26.58;;;10.00;99.90;;;;;;6707065;88;20170;-76
2021/12/16 21:56:15;;;;;;;70.95;27.50;;;10.00;99.90;;;;;;6717400;88;20221;-77
2021/12/16 22:06:16;;;;;;;66.93;26.85;;;10.10;99.90;;;;;;6714728;88;20319;-77
2021/12/16 22:16:18;;;;;;;60.55;24.12;;;9.90;99.90;;;;;;6718621;88;20308;-77
2021/12/16 22:26:18;;;;;;;62.47;25.05;;;9.90;99.90;;;;;;6718248;88;20196;-77
2021/12/16 22:36:20;;;;;;;64.72;24.48;;;9.90;99.90;;;;;;6717046;88;20977;-77
2021/12/16 22:46:21;;;;;;;65.18;25.80;;;10.00;99.90;;;;;;6721443;88;20238;-77
2021/12/16 22:56:22;;;;;;;58.35;22.60;;;9.80;99.90;;;;;;6721179;88;20683;-77
2021/12/16 23:06:24;;;;;;;55.03;21.75;;;9.70;99.90;;;;;;6727574;88;20215;-77
2021/12/16 23:26:48;;;;;;;57.88;22.00;;;9.80;99.90;;;;;;6716523;88;20189;-77
2021/12/16 23:36:49;;;;;;;58.38;22.42;;;9.70;99.90;;;;;;6724919;77;20327;-76
2021/12/16 23:56:52;;;;;;;51.10;19.27;;;9.60;99.90;;;;;;6694161;88;20244;-76
